createdAt,value
2022-07-30T00:02:25.888Z,99.90
2022-07-30T00:05:12.565Z,99.90
2022-07-30T00:07:59.456Z,99.90
2022-07-30T00:10:46.213Z,99.90
2022-07-30T00:13:36.611Z,99.90
2022-07-30T00:16:24.756Z,99.90
2022-07-30T00:19:11.442Z,99.90
2022-07-30T00:21:58.160Z,99.90
2022-07-30T00:24:45.050Z,99.90
2022-07-30T00:27:34.812Z,99.90
2022-07-30T00:30:21.870Z,99.90
2022-07-30T00:33:10.034Z,99.90
2022-07-30T00:35:57.338Z,99.90
2022-07-30T00:38:44.424Z,99.90
2022-07-30T00:41:30.937Z,99.90
2022-07-30T00:44:17.720Z,99.90
2022-07-30T00:47:04.876Z,99.90
2022-07-30T00:49:52.877Z,99.90
2022-07-30T00:52:40.498Z,99.90
2022-07-30T00:55:26.918Z,99.90
2022-07-30T00:58:13.808Z,99.90
2022-07-30T01:01:01.105Z,99.90
2022-07-30T01:03:48.230Z,99.90
2022-07-30T01:06:36.453Z,99.90
2022-07-30T01:09:23.267Z,99.90
2022-07-30T01:12:12.082Z,99.90
2022-07-30T01:14:59.189Z,99.90
2022-07-30T01:17:52.853Z,99.90
2022-07-30T01:20:44.194Z,99.90
2022-07-30T01:23:39.135Z,99.90
2022-07-30T01:26:32.681Z,99.90
2022-07-30T01:29:20.905Z,99.90
2022-07-30T01:32:09.879Z,99.90
2022-07-30T01:34:58.629Z,99.90
2022-07-30T01:37:46.203Z,99.90
2022-07-30T01:40:33.664Z,99.90
2022-07-30T01:43:24.619Z,99.90
2022-07-30T01:46:12.218Z,99.90
2022-07-30T01:48:59.981Z,99.90
2022-07-30T01:51:52.500Z,99.90
2022-07-30T01:54:41.221Z,99.90
2022-07-30T01:57:28.347Z,99.90
2022-07-30T02:00:18.221Z,99.90
2022-07-30T02:03:08.561Z,99.90
2022-07-30T02:06:01.190Z,99.90
2022-07-30T02:08:52.603Z,99.90
2022-07-30T02:12:02.174Z,99.90
2022-07-30T02:14:53.292Z,99.90
2022-07-30T02:17:45.468Z,99.90
2022-07-30T02:20:36.006Z,99.90
2022-07-30T02:23:29.298Z,99.90
2022-07-30T02:26:22.122Z,99.90
2022-07-30T02:29:11.571Z,99.90
2022-07-30T02:32:01.764Z,99.90
2022-07-30T02:34:56.929Z,99.90
2022-07-30T02:37:45.814Z,99.90
2022-07-30T02:40:33.132Z,99.90
2022-07-30T02:43:24.996Z,99.90
2022-07-30T02:46:14.329Z,99.90
2022-07-30T02:49:25.236Z,99.90
2022-07-30T02:52:16.882Z,99.90
2022-07-30T02:55:04.929Z,99.90
2022-07-30T02:57:54.392Z,99.90
2022-07-30T03:00:42.005Z,99.90
2022-07-30T03:03:29.940Z,99.90
2022-07-30T03:06:18.360Z,99.90
2022-07-30T03:09:08.241Z,99.90
2022-07-30T03:11:57.364Z,99.90
2022-07-30T03:14:44.454Z,99.90
2022-07-30T03:17:38.489Z,99.90
2022-07-30T03:20:29.077Z,99.90
2022-07-30T03:23:18.826Z,99.90
2022-07-30T03:26:09.561Z,99.90
2022-07-30T03:28:56.231Z,99.90
2022-07-30T03:31:43.582Z,99.90
2022-07-30T03:34:34.360Z,99.90
2022-07-30T03:37:21.933Z,99.90
2022-07-30T03:40:10.096Z,99.90
2022-07-30T03:42:58.957Z,99.90
2022-07-30T03:45:46.683Z,99.90
2022-07-30T03:48:39.570Z,99.90
2022-07-30T03:51:32.963Z,99.90
2022-07-30T03:54:20.718Z,99.90
2022-07-30T03:57:23.958Z,99.90
2022-07-30T04:00:17.202Z,99.90
2022-07-30T04:03:10.054Z,99.90
2022-07-30T04:06:08.530Z,99.90
2022-07-30T04:08:55.410Z,99.90
2022-07-30T04:11:42.536Z,99.90
2022-07-30T04:14:41.439Z,99.90
2022-07-30T04:17:36.223Z,99.90
2022-07-30T04:20:28.621Z,99.90
2022-07-30T04:23:16.813Z,99.90
2022-07-30T04:26:04.872Z,99.90
2022-07-30T04:28:52.455Z,99.90
2022-07-30T04:31:40.977Z,99.90
2022-07-30T04:34:52.639Z,99.90
2022-07-30T04:37:58.111Z,99.90
2022-07-30T04:40:45.872Z,99.90
2022-07-30T04:43:32.941Z,99.90
2022-07-30T04:46:19.980Z,99.90
2022-07-30T04:49:11.603Z,99.90
2022-07-30T04:52:00.474Z,99.90
2022-07-30T04:54:50.477Z,99.90
2022-07-30T04:57:39.664Z,99.90
2022-07-30T05:00:26.499Z,99.90
2022-07-30T05:03:15.414Z,99.90
2022-07-30T05:06:07.531Z,99.90
2022-07-30T05:08:59.435Z,99.90
2022-07-30T05:11:51.933Z,99.90
2022-07-30T05:14:38.692Z,99.90
2022-07-30T05:17:25.554Z,99.90
2022-07-30T05:20:13.133Z,99.90
2022-07-30T05:23:26.009Z,99.90
2022-07-30T05:26:43.452Z,99.90
2022-07-30T05:29:32.482Z,99.90
2022-07-30T05:32:29.517Z,99.90
2022-07-30T05:35:19.505Z,99.90
2022-07-30T05:38:07.126Z,99.90
2022-07-30T05:41:05.298Z,99.90
2022-07-30T05:44:39.353Z,99.90
2022-07-30T05:47:26.501Z,99.90
2022-07-30T05:50:13.873Z,99.90
2022-07-30T05:53:00.922Z,99.90
2022-07-30T05:56:13.249Z,99.90
2022-07-30T05:59:28.952Z,99.90
2022-07-30T06:02:25.637Z,99.90
2022-07-30T06:05:41.448Z,99.90
2022-07-30T06:08:27.994Z,99.90
2022-07-30T06:11:15.289Z,99.90
2022-07-30T06:14:02.358Z,99.40
2022-07-30T06:16:49.245Z,99.30
2022-07-30T06:19:37.688Z,99.20
2022-07-30T06:22:26.213Z,99.10
2022-07-30T06:25:14.886Z,98.30
2022-07-30T06:28:21.280Z,98.10
2022-07-30T06:31:12.540Z,97.90
2022-07-30T06:33:59.306Z,97.80
2022-07-30T06:36:51.509Z,96.30
2022-07-30T06:39:58.001Z,95.90
2022-07-30T06:42:59.238Z,95.50
2022-07-30T06:46:03.503Z,94.90
2022-07-30T06:48:56.519Z,94.40
2022-07-30T06:51:43.510Z,93.40
2022-07-30T06:54:31.936Z,93.60
2022-07-30T06:57:32.324Z,93.30
2022-07-30T07:00:23.312Z,93.20
2022-07-30T07:03:11.940Z,92.90
2022-07-30T07:05:58.588Z,92.90
2022-07-30T07:08:45.448Z,92.10
2022-07-30T07:11:37.440Z,91.30
2022-07-30T07:14:28.789Z,90.70
2022-07-30T07:17:15.503Z,90.30
2022-07-30T07:20:17.295Z,90.80
2022-07-30T07:23:12.678Z,91.80
2022-07-30T07:26:01.856Z,92.50
2022-07-30T07:28:50.565Z,93.00
2022-07-30T07:32:06.001Z,93.80
2022-07-30T07:34:43.625Z,94.40
2022-07-30T07:37:33.785Z,94.90
2022-07-30T07:40:51.501Z,94.60
2022-07-30T07:44:01.264Z,94.50
2022-07-30T07:46:52.275Z,94.20
2022-07-30T07:49:40.214Z,93.50
2022-07-30T07:52:27.217Z,92.60
2022-07-30T07:55:14.168Z,91.60
2022-07-30T07:58:01.405Z,90.70
2022-07-30T08:00:50.908Z,89.70
2022-07-30T08:03:42.490Z,88.10
2022-07-30T08:06:49.143Z,86.90
2022-07-30T08:09:55.314Z,86.30
2022-07-30T08:13:07.780Z,84.70
2022-07-30T08:16:34.673Z,85.20
2022-07-30T08:19:48.143Z,84.40
2022-07-30T08:22:41.261Z,83.20
2022-07-30T08:25:28.097Z,80.80
2022-07-30T08:28:34.160Z,79.90
2022-07-30T08:31:21.722Z,78.80
2022-07-30T08:34:09.989Z,77.90
2022-07-30T08:36:57.039Z,76.70
2022-07-30T08:39:44.015Z,76.20
2022-07-30T08:42:32.095Z,75.00
2022-07-30T08:45:19.206Z,76.40
2022-07-30T08:48:16.290Z,72.20
2022-07-30T08:51:06.961Z,72.80
2022-07-30T08:53:56.253Z,73.40
2022-07-30T09:05:22.432Z,66.50
2022-07-30T09:08:10.642Z,68.20
2022-07-30T09:10:57.230Z,66.30
2022-07-30T09:13:44.617Z,66.40
2022-07-30T09:16:32.961Z,64.70
2022-07-30T09:19:21.665Z,65.50
2022-07-30T09:22:08.578Z,64.90
2022-07-30T09:25:16.577Z,65.00
2022-07-30T09:28:30.849Z,62.10
2022-07-30T09:35:14.086Z,61.40
2022-07-30T09:38:19.398Z,60.80
2022-07-30T09:41:17.217Z,59.10
2022-07-30T09:44:29.687Z,58.80
2022-07-30T09:47:31.563Z,59.40
2022-07-30T09:50:29.926Z,58.80
2022-07-30T09:53:18.976Z,58.40
2022-07-30T09:56:27.706Z,58.80
2022-07-30T09:59:35.066Z,58.10
2022-07-30T10:02:29.427Z,57.90
2022-07-30T10:05:34.386Z,57.90
2022-07-30T10:08:41.669Z,58.70
2022-07-30T10:11:31.343Z,59.70
2022-07-30T10:14:30.625Z,60.80
2022-07-30T10:17:18.835Z,61.10
2022-07-30T10:20:18.877Z,60.10
2022-07-30T10:23:27.179Z,59.60
2022-07-30T10:26:35.752Z,59.80
2022-07-30T10:29:51.562Z,60.40
2022-07-30T10:32:39.420Z,58.00
2022-07-30T10:35:34.930Z,58.40
2022-07-30T10:38:29.948Z,58.90
2022-07-30T10:41:44.304Z,58.70
2022-07-30T10:45:10.292Z,58.30
2022-07-30T10:48:05.924Z,58.30
2022-07-30T10:50:55.961Z,58.40
2022-07-30T10:53:45.881Z,59.40
2022-07-30T10:56:32.891Z,60.80
2022-07-30T10:59:20.229Z,61.60
2022-07-30T11:02:11.969Z,60.80
2022-07-30T11:05:27.362Z,60.50
2022-07-30T11:08:37.562Z,60.40
2022-07-30T11:12:04.922Z,59.80
2022-07-30T11:15:07.880Z,60.60
2022-07-30T11:18:12.926Z,59.50
2022-07-30T11:21:21.447Z,60.20
2022-07-30T11:24:45.508Z,60.50
2022-07-30T11:27:37.016Z,61.00
2022-07-30T11:30:41.960Z,59.80
2022-07-30T11:33:39.149Z,59.10
2022-07-30T11:36:26.607Z,59.00
2022-07-30T11:39:13.025Z,58.60
2022-07-30T11:42:27.098Z,57.70
2022-07-30T11:45:29.534Z,57.60
2022-07-30T11:48:19.209Z,57.20
2022-07-30T11:51:08.600Z,57.30
2022-07-30T11:54:03.566Z,57.00
2022-07-30T11:56:52.534Z,56.60
2022-07-30T11:59:54.370Z,56.20
2022-07-30T12:02:42.007Z,56.50
2022-07-30T12:05:29.285Z,55.90
2022-07-30T12:08:36.171Z,55.60
2022-07-30T12:11:23.240Z,57.20
2022-07-30T12:14:10.370Z,56.50
2022-07-30T12:16:59.545Z,56.30
2022-07-30T12:19:48.057Z,56.40
2022-07-30T12:22:35.466Z,56.60
2022-07-30T12:25:23.457Z,57.10
2022-07-30T12:28:11.379Z,57.40
2022-07-30T12:31:00.165Z,56.50
2022-07-30T12:33:47.458Z,55.90
2022-07-30T12:36:35.754Z,56.00
2022-07-30T12:39:24.777Z,56.00
2022-07-30T12:42:21.085Z,56.20
2022-07-30T12:45:08.821Z,56.40
2022-07-30T12:47:55.418Z,56.30
2022-07-30T12:50:42.472Z,55.80
2022-07-30T12:53:30.874Z,56.50
2022-07-30T12:56:19.031Z,56.60
2022-07-30T12:59:21.414Z,56.90
2022-07-30T13:02:08.490Z,56.60
2022-07-30T13:05:10.136Z,56.50
2022-07-30T13:07:59.718Z,56.60
2022-07-30T13:10:57.063Z,57.10
2022-07-30T13:13:46.198Z,56.70
2022-07-30T13:16:35.359Z,57.00
2022-07-30T13:19:22.273Z,56.50
2022-07-30T13:22:09.700Z,56.80
2022-07-30T13:24:56.610Z,56.60
2022-07-30T13:27:43.587Z,56.60
2022-07-30T13:30:30.351Z,56.40
2022-07-30T13:33:18.855Z,58.80
2022-07-30T13:36:05.759Z,57.20
2022-07-30T13:38:52.696Z,57.00
2022-07-30T13:41:41.616Z,57.40
2022-07-30T13:44:28.265Z,57.30
2022-07-30T13:47:15.058Z,57.30
2022-07-30T13:50:03.354Z,57.30
2022-07-30T13:52:50.207Z,56.60
2022-07-30T13:55:37.238Z,57.30
2022-07-30T13:58:23.881Z,57.90
2022-07-30T14:01:15.815Z,57.30
2022-07-30T14:04:05.820Z,57.10
2022-07-30T14:06:53.834Z,57.10
2022-07-30T14:09:46.850Z,57.20
2022-07-30T14:12:35.072Z,57.60
2022-07-30T14:15:21.777Z,57.50
2022-07-30T14:18:08.485Z,57.50
2022-07-30T14:20:55.294Z,57.90
2022-07-30T14:23:43.074Z,57.40
2022-07-30T14:26:33.862Z,57.50
2022-07-30T14:29:22.941Z,57.10
2022-07-30T14:32:09.858Z,57.70
2022-07-30T14:34:58.847Z,58.00
2022-07-30T14:37:45.824Z,58.50
2022-07-30T14:40:33.786Z,58.30
2022-07-30T14:43:20.556Z,58.00
2022-07-30T14:46:07.797Z,58.80
2022-07-30T14:48:54.522Z,58.40
2022-07-30T14:51:41.449Z,58.50
2022-07-30T14:54:28.198Z,58.90
2022-07-30T14:57:15.904Z,58.20
2022-07-30T15:00:03.893Z,58.20
2022-07-30T15:02:50.585Z,58.50
2022-07-30T15:05:37.206Z,57.70
2022-07-30T15:08:24.191Z,57.20
2022-07-30T15:11:10.730Z,56.40
2022-07-30T15:13:59.377Z,56.40
2022-07-30T15:16:46.081Z,56.30
2022-07-30T15:19:33.176Z,56.40
2022-07-30T15:22:20.177Z,56.80
2022-07-30T15:25:08.868Z,56.60
2022-07-30T15:27:55.457Z,56.50
2022-07-30T15:30:43.659Z,56.80
2022-07-30T15:33:30.712Z,56.30
2022-07-30T15:36:22.626Z,56.10
2022-07-30T15:39:09.078Z,55.50
2022-07-30T15:41:56.221Z,55.90
2022-07-30T15:44:48.783Z,55.50
2022-07-30T15:47:37.409Z,55.20
2022-07-30T15:50:24.509Z,55.30
2022-07-30T15:53:17.296Z,55.10
2022-07-30T15:56:04.499Z,55.20
2022-07-30T15:58:51.241Z,55.10
2022-07-30T16:01:38.486Z,54.40
2022-07-30T16:04:32.048Z,54.70
2022-07-30T16:07:19.209Z,54.80
2022-07-30T16:10:06.849Z,54.70
2022-07-30T16:12:53.453Z,55.10
2022-07-30T16:15:39.869Z,55.20
2022-07-30T16:18:26.422Z,55.00
2022-07-30T16:21:14.697Z,55.40
2022-07-30T16:24:01.058Z,55.10
2022-07-30T16:26:47.549Z,54.60
2022-07-30T16:29:33.870Z,55.00
2022-07-30T16:32:20.376Z,54.70
2022-07-30T16:35:12.808Z,54.70
2022-07-30T16:38:02.732Z,54.90
2022-07-30T16:40:49.416Z,54.20
2022-07-30T16:43:36.076Z,54.20
2022-07-30T16:46:24.387Z,54.80
2022-07-30T16:49:11.432Z,54.40
2022-07-30T16:51:58.329Z,53.80
2022-07-30T16:54:46.689Z,54.10
2022-07-30T16:57:40.578Z,54.20
2022-07-30T17:00:36.052Z,54.20
2022-07-30T17:03:22.913Z,53.90
2022-07-30T17:06:09.862Z,54.20
2022-07-30T17:08:56.674Z,54.50
2022-07-30T17:11:47.160Z,54.20
2022-07-30T17:14:39.117Z,54.50
2022-07-30T17:17:25.709Z,54.40
2022-07-30T17:20:14.340Z,54.00
2022-07-30T17:23:00.798Z,54.00
2022-07-30T17:25:47.383Z,54.10
2022-07-30T17:28:35.314Z,54.10
2022-07-30T17:31:22.105Z,54.00
2022-07-30T17:34:10.463Z,54.30
2022-07-30T17:36:57.453Z,54.40
2022-07-30T17:40:26.619Z,54.00
2022-07-30T17:42:51.077Z,54.10
2022-07-30T17:45:39.020Z,54.00
2022-07-30T17:48:25.579Z,54.40
2022-07-30T17:51:12.621Z,54.60
2022-07-30T17:53:59.493Z,54.90
2022-07-30T17:56:46.262Z,55.40
2022-07-30T17:59:33.438Z,54.80
2022-07-30T18:02:28.758Z,54.00
2022-07-30T18:05:15.859Z,54.90
2022-07-30T18:08:02.759Z,55.40
2022-07-30T18:10:50.148Z,56.40
2022-07-30T18:13:36.772Z,56.40
2022-07-30T18:16:23.998Z,56.10
2022-07-30T18:19:22.789Z,57.20
2022-07-30T18:22:14.881Z,56.20
2022-07-30T18:25:01.820Z,56.50
2022-07-30T18:27:49.040Z,55.90
2022-07-30T18:30:35.238Z,56.60
2022-07-30T18:33:22.236Z,56.00
2022-07-30T18:36:18.512Z,57.60
2022-07-30T18:39:25.367Z,56.80
2022-07-30T18:42:11.840Z,58.40
2022-07-30T18:44:58.773Z,59.00
2022-07-30T18:47:47.129Z,58.30
2022-07-30T18:50:34.041Z,59.50
2022-07-30T18:53:22.419Z,59.70
2022-07-30T18:56:09.300Z,59.70
2022-07-30T18:58:56.233Z,59.60
2022-07-30T19:01:43.779Z,58.50
2022-07-30T19:04:31.281Z,58.10
2022-07-30T19:07:18.238Z,58.50
2022-07-30T19:10:08.055Z,59.20
2022-07-30T19:12:54.728Z,59.50
2022-07-30T19:15:41.094Z,59.60
2022-07-30T19:18:28.037Z,60.20
2022-07-30T19:21:14.549Z,61.30
2022-07-30T19:24:01.460Z,62.30
2022-07-30T19:26:49.566Z,63.50
2022-07-30T19:29:36.825Z,63.80
2022-07-30T19:32:23.150Z,63.50
2022-07-30T19:35:13.589Z,64.80
2022-07-30T19:38:01.782Z,65.50
2022-07-30T19:43:59.023Z,66.90
2022-07-30T19:46:46.743Z,67.50
2022-07-30T19:49:43.374Z,68.00
2022-07-30T19:52:30.843Z,68.10
2022-07-30T19:55:30.954Z,68.20
2022-07-30T19:58:21.960Z,69.00
2022-07-30T20:01:14.459Z,69.70
2022-07-30T20:04:01.864Z,69.80
2022-07-30T20:06:49.088Z,70.20
2022-07-30T20:09:35.720Z,70.50
2022-07-30T20:12:24.310Z,70.90
2022-07-30T20:15:14.700Z,71.40
2022-07-30T20:18:03.280Z,72.00
2022-07-30T20:20:50.143Z,72.50
2022-07-30T20:23:37.879Z,73.40
2022-07-30T20:26:29.103Z,74.80
2022-07-30T20:29:19.448Z,75.50
2022-07-30T20:32:08.356Z,75.50
2022-07-30T20:34:56.912Z,76.20
2022-07-30T20:37:54.893Z,76.70
2022-07-30T20:40:46.494Z,76.20
2022-07-30T20:43:33.069Z,76.50
2022-07-30T20:46:34.962Z,77.10
2022-07-30T20:49:28.950Z,78.40
2022-07-30T20:52:23.354Z,78.90
2022-07-30T20:55:14.561Z,80.00
2022-07-30T20:58:09.923Z,79.60
2022-07-30T21:01:20.426Z,78.70
2022-07-30T21:04:40.550Z,80.30
2022-07-30T21:26:04.795Z,89.10
2022-07-30T21:28:53.981Z,90.30
2022-07-30T21:32:01.580Z,90.50
2022-07-30T21:34:47.341Z,91.40
2022-07-30T21:37:36.621Z,92.10
2022-07-30T21:40:24.542Z,92.40
2022-07-30T21:43:13.061Z,92.70
2022-07-30T21:46:00.013Z,93.50
2022-07-30T21:48:54.803Z,94.00
2022-07-30T21:51:44.518Z,95.00
2022-07-30T21:54:35.011Z,95.80
2022-07-30T21:57:32.396Z,96.40
2022-07-30T22:00:44.610Z,96.70
2022-07-30T22:04:04.648Z,96.90
2022-07-30T22:06:41.627Z,96.90
2022-07-30T22:09:34.387Z,97.10
2022-07-30T22:12:34.807Z,97.20
2022-07-30T22:15:23.146Z,97.30
2022-07-30T22:18:12.362Z,97.10
2022-07-30T22:20:59.079Z,96.80
2022-07-30T22:23:58.224Z,97.20
2022-07-30T22:26:45.585Z,97.40
2022-07-30T22:29:38.107Z,97.20
2022-07-30T22:32:26.466Z,96.40
2022-07-30T22:35:16.453Z,96.10
2022-07-30T22:38:03.485Z,96.60
2022-07-30T22:40:50.060Z,96.80
2022-07-30T22:43:41.055Z,97.00
2022-07-30T22:46:30.386Z,97.40
2022-07-30T22:49:23.759Z,97.60
2022-07-30T22:52:28.556Z,97.60
2022-07-30T22:55:16.415Z,98.20
2022-07-30T22:58:08.881Z,98.30
2022-07-30T23:00:56.213Z,98.90
2022-07-30T23:03:43.005Z,98.80
2022-07-30T23:06:33.110Z,98.70
2022-07-30T23:09:19.965Z,97.80
2022-07-30T23:12:07.347Z,98.40
2022-07-30T23:12:16.886Z,66.20
2022-07-30T23:14:54.756Z,98.20
2022-07-30T23:17:41.753Z,98.10
2022-07-30T23:20:28.375Z,98.10
2022-07-30T23:23:16.752Z,98.30
2022-07-30T23:26:03.925Z,98.30
2022-07-30T23:28:50.823Z,98.30
2022-07-30T23:31:37.806Z,98.80
2022-07-30T23:34:24.872Z,99.70
2022-07-30T23:37:14.825Z,99.90
2022-07-30T23:40:03.169Z,99.90
2022-07-30T23:42:50.810Z,99.90
2022-07-30T23:45:37.874Z,99.90
2022-07-30T23:48:24.579Z,99.90
2022-07-30T23:51:11.176Z,99.90
2022-07-30T23:53:58.195Z,99.90
2022-07-30T23:56:46.393Z,99.90
2022-07-30T23:59:40.561Z,99.90
